Terminal Aerodrome Forecast
Issued by NWS

Home | Current Version | Previous Version | Text Only | Print | Product List | Glossary On
Versions: 1 2 3 4 5 6 7 8 9 10 11 12 13 14
000
FTUS42 KMLB 251100
TAFLEE
TAF
KLEE 251133Z 2512/2612 23005KT P6SM SCT030 SCT250
     FM251700 27008KT P6SM VCTS SCT035CB BKN080
      TEMPO 2517/2520 3SM TSRA BKN035CB OVC080
     FM260000 25005KT P6SM FEW040 BKN250=

USA.gov is the U.S. government's official web portal to all federal, state and local government web resources and services.